sensor_id;sensor_type;location;lat;lon;timestamp;temperature;humidity
84440;SHT31;74675;51.980;5.730;2023-12-20T00:00:22;8.6;81.1
84440;SHT31;74675;51.980;5.730;2023-12-20T00:02:52;8.6;81.0
84440;SHT31;74675;51.980;5.730;2023-12-20T00:05:21;8.6;80.7
84440;SHT31;74675;51.980;5.730;2023-12-20T00:07:49;8.6;80.8
84440;SHT31;74675;51.980;5.730;2023-12-20T00:10:18;8.5;81.2
84440;SHT31;74675;51.980;5.730;2023-12-20T00:12:46;8.5;81.1
84440;SHT31;74675;51.980;5.730;2023-12-20T00:15:17;8.5;81.0
84440;SHT31;74675;51.980;5.730;2023-12-20T00:17:47;8.5;80.8
84440;SHT31;74675;51.980;5.730;2023-12-20T00:20:16;8.5;80.8
84440;SHT31;74675;51.980;5.730;2023-12-20T00:22:45;8.5;80.9
84440;SHT31;74675;51.980;5.730;2023-12-20T00:25:14;8.5;80.7
84440;SHT31;74675;51.980;5.730;2023-12-20T00:27:43;8.5;80.5
84440;SHT31;74675;51.980;5.730;2023-12-20T00:30:14;8.5;80.5
84440;SHT31;74675;51.980;5.730;2023-12-20T00:32:45;8.5;80.4
84440;SHT31;74675;51.980;5.730;2023-12-20T00:35:14;8.5;80.4
84440;SHT31;74675;51.980;5.730;2023-12-20T00:37:43;8.5;80.6
84440;SHT31;74675;51.980;5.730;2023-12-20T00:40:12;8.5;80.3
84440;SHT31;74675;51.980;5.730;2023-12-20T00:42:41;8.4;80.3
84440;SHT31;74675;51.980;5.730;2023-12-20T00:45:10;8.4;80.4
84440;SHT31;74675;51.980;5.730;2023-12-20T00:47:38;8.4;80.2
84440;SHT31;74675;51.980;5.730;2023-12-20T00:50:08;8.4;80.1
84440;SHT31;74675;51.980;5.730;2023-12-20T00:52:36;8.3;80.2
84440;SHT31;74675;51.980;5.730;2023-12-20T00:55:05;8.3;80.3
84440;SHT31;74675;51.980;5.730;2023-12-20T00:57:34;8.2;80.5
84440;SHT31;74675;51.980;5.730;2023-12-20T01:00:03;8.2;80.5
84440;SHT31;74675;51.980;5.730;2023-12-20T01:02:32;8.1;80.6
84440;SHT31;74675;51.980;5.730;2023-12-20T01:05:00;8.1;80.7
84440;SHT31;74675;51.980;5.730;2023-12-20T01:07:29;8.1;81.0
84440;SHT31;74675;51.980;5.730;2023-12-20T01:09:58;8.0;81.1
84440;SHT31;74675;51.980;5.730;2023-12-20T01:12:26;8.0;81.0
84440;SHT31;74675;51.980;5.730;2023-12-20T01:14:55;8.0;81.1
84440;SHT31;74675;51.980;5.730;2023-12-20T01:17:25;8.0;80.9
84440;SHT31;74675;51.980;5.730;2023-12-20T01:19:53;8.0;81.0
84440;SHT31;74675;51.980;5.730;2023-12-20T01:22:22;7.9;81.1
84440;SHT31;74675;51.980;5.730;2023-12-20T01:24:51;7.9;81.1
84440;SHT31;74675;51.980;5.730;2023-12-20T01:27:19;7.9;80.9
84440;SHT31;74675;51.980;5.730;2023-12-20T01:29:48;7.9;80.9
84440;SHT31;74675;51.980;5.730;2023-12-20T01:32:16;7.9;80.9
84440;SHT31;74675;51.980;5.730;2023-12-20T01:34:45;7.9;80.9
84440;SHT31;74675;51.980;5.730;2023-12-20T01:37:15;7.9;80.8
84440;SHT31;74675;51.980;5.730;2023-12-20T01:39:43;7.9;80.7
84440;SHT31;74675;51.980;5.730;2023-12-20T01:42:12;7.9;80.7
84440;SHT31;74675;51.980;5.730;2023-12-20T01:44:40;7.9;80.6
84440;SHT31;74675;51.980;5.730;2023-12-20T01:47:09;7.9;80.5
84440;SHT31;74675;51.980;5.730;2023-12-20T01:49:38;7.9;80.7
84440;SHT31;74675;51.980;5.730;2023-12-20T01:52:09;7.9;80.5
84440;SHT31;74675;51.980;5.730;2023-12-20T01:54:38;7.9;80.7
84440;SHT31;74675;51.980;5.730;2023-12-20T01:57:09;7.9;80.7
84440;SHT31;74675;51.980;5.730;2023-12-20T01:59:39;7.9;80.7
84440;SHT31;74675;51.980;5.730;2023-12-20T02:02:09;7.9;80.6
84440;SHT31;74675;51.980;5.730;2023-12-20T02:04:39;7.9;80.6
84440;SHT31;74675;51.980;5.730;2023-12-20T02:07:08;7.9;80.6
84440;SHT31;74675;51.980;5.730;2023-12-20T02:09:38;7.9;80.6
84440;SHT31;74675;51.980;5.730;2023-12-20T02:12:10;7.9;80.9
84440;SHT31;74675;51.980;5.730;2023-12-20T02:14:39;7.9;81.2
84440;SHT31;74675;51.980;5.730;2023-12-20T02:17:07;7.9;81.2
84440;SHT31;74675;51.980;5.730;2023-12-20T02:19:36;7.9;81.1
84440;SHT31;74675;51.980;5.730;2023-12-20T02:22:08;7.9;81.1
84440;SHT31;74675;51.980;5.730;2023-12-20T02:24:38;7.9;81.2
84440;SHT31;74675;51.980;5.730;2023-12-20T02:27:07;7.9;81.1
84440;SHT31;74675;51.980;5.730;2023-12-20T02:29:36;7.9;81.2
84440;SHT31;74675;51.980;5.730;2023-12-20T02:32:05;7.9;81.3
84440;SHT31;74675;51.980;5.730;2023-12-20T02:34:34;7.9;81.5
84440;SHT31;74675;51.980;5.730;2023-12-20T02:37:02;7.9;81.4
84440;SHT31;74675;51.980;5.730;2023-12-20T02:39:31;7.9;81.5
84440;SHT31;74675;51.980;5.730;2023-12-20T02:42:00;7.9;81.6
84440;SHT31;74675;51.980;5.730;2023-12-20T02:44:28;8.0;81.7
84440;SHT31;74675;51.980;5.730;2023-12-20T02:46:56;8.0;81.5
84440;SHT31;74675;51.980;5.730;2023-12-20T02:49:25;8.0;81.8
84440;SHT31;74675;51.980;5.730;2023-12-20T02:51:54;8.0;81.6
84440;SHT31;74675;51.980;5.730;2023-12-20T02:54:22;8.1;81.3
84440;SHT31;74675;51.980;5.730;2023-12-20T02:56:51;8.1;81.4
84440;SHT31;74675;51.980;5.730;2023-12-20T02:59:19;8.1;81.4
84440;SHT31;74675;51.980;5.730;2023-12-20T03:01:48;8.1;81.1
84440;SHT31;74675;51.980;5.730;2023-12-20T03:04:16;8.1;80.9
84440;SHT31;74675;51.980;5.730;2023-12-20T03:06:45;8.1;80.7
84440;SHT31;74675;51.980;5.730;2023-12-20T03:09:14;8.1;80.8
84440;SHT31;74675;51.980;5.730;2023-12-20T03:11:42;8.1;80.8
84440;SHT31;74675;51.980;5.730;2023-12-20T03:14:11;8.1;80.5
84440;SHT31;74675;51.980;5.730;2023-12-20T03:16:39;8.0;80.6
84440;SHT31;74675;51.980;5.730;2023-12-20T03:19:08;8.0;80.5
84440;SHT31;74675;51.980;5.730;2023-12-20T03:21:36;8.0;80.4
84440;SHT31;74675;51.980;5.730;2023-12-20T03:24:05;8.0;80.6
84440;SHT31;74675;51.980;5.730;2023-12-20T03:26:34;8.0;80.7
84440;SHT31;74675;51.980;5.730;2023-12-20T03:29:02;8.0;80.9
84440;SHT31;74675;51.980;5.730;2023-12-20T03:31:31;8.0;80.9
84440;SHT31;74675;51.980;5.730;2023-12-20T03:34:00;8.0;80.6
84440;SHT31;74675;51.980;5.730;2023-12-20T03:36:28;7.9;80.9
84440;SHT31;74675;51.980;5.730;2023-12-20T03:38:56;8.0;80.7
84440;SHT31;74675;51.980;5.730;2023-12-20T03:41:25;8.0;80.8
84440;SHT31;74675;51.980;5.730;2023-12-20T03:43:54;8.0;80.7
84440;SHT31;74675;51.980;5.730;2023-12-20T03:46:22;8.0;81.0
84440;SHT31;74675;51.980;5.730;2023-12-20T03:48:51;8.0;81.0
84440;SHT31;74675;51.980;5.730;2023-12-20T03:51:19;8.0;80.9
84440;SHT31;74675;51.980;5.730;2023-12-20T03:53:48;8.0;80.4
84440;SHT31;74675;51.980;5.730;2023-12-20T03:56:16;8.0;80.6
84440;SHT31;74675;51.980;5.730;2023-12-20T03:58:45;8.0;80.3
84440;SHT31;74675;51.980;5.730;2023-12-20T04:01:13;8.0;80.5
84440;SHT31;74675;51.980;5.730;2023-12-20T04:03:42;8.0;80.5
84440;SHT31;74675;51.980;5.730;2023-12-20T04:06:18;8.0;80.6
84440;SHT31;74675;51.980;5.730;2023-12-20T04:08:47;8.0;80.6
84440;SHT31;74675;51.980;5.730;2023-12-20T04:11:15;8.0;80.2
84440;SHT31;74675;51.980;5.730;2023-12-20T04:13:44;8.1;80.3
84440;SHT31;74675;51.980;5.730;2023-12-20T04:16:13;8.1;80.4
84440;SHT31;74675;51.980;5.730;2023-12-20T04:18:41;8.1;80.3
84440;SHT31;74675;51.980;5.730;2023-12-20T04:21:10;8.1;80.1
84440;SHT31;74675;51.980;5.730;2023-12-20T04:23:40;8.1;79.9
84440;SHT31;74675;51.980;5.730;2023-12-20T04:26:09;8.2;79.9
84440;SHT31;74675;51.980;5.730;2023-12-20T04:28:37;8.2;80.2
84440;SHT31;74675;51.980;5.730;2023-12-20T04:31:06;8.2;80.3
84440;SHT31;74675;51.980;5.730;2023-12-20T04:33:36;8.2;80.2
84440;SHT31;74675;51.980;5.730;2023-12-20T04:36:06;8.2;79.9
84440;SHT31;74675;51.980;5.730;2023-12-20T04:38:35;8.3;80.1
84440;SHT31;74675;51.980;5.730;2023-12-20T04:41:04;8.3;80.1
84440;SHT31;74675;51.980;5.730;2023-12-20T04:43:33;8.3;79.9
84440;SHT31;74675;51.980;5.730;2023-12-20T04:46:02;8.3;79.7
84440;SHT31;74675;51.980;5.730;2023-12-20T04:48:30;8.4;79.7
84440;SHT31;74675;51.980;5.730;2023-12-20T04:50:59;8.4;79.4
84440;SHT31;74675;51.980;5.730;2023-12-20T04:53:27;8.4;79.5
84440;SHT31;74675;51.980;5.730;2023-12-20T04:55:58;8.4;79.4
84440;SHT31;74675;51.980;5.730;2023-12-20T04:58:26;8.5;79.7
84440;SHT31;74675;51.980;5.730;2023-12-20T05:00:55;8.5;79.4
84440;SHT31;74675;51.980;5.730;2023-12-20T05:03:23;8.5;79.4
84440;SHT31;74675;51.980;5.730;2023-12-20T05:05:52;8.6;78.7
84440;SHT31;74675;51.980;5.730;2023-12-20T05:08:20;8.6;78.9
84440;SHT31;74675;51.980;5.730;2023-12-20T05:10:49;8.6;78.8
84440;SHT31;74675;51.980;5.730;2023-12-20T05:13:18;8.7;78.5
84440;SHT31;74675;51.980;5.730;2023-12-20T05:15:47;8.7;78.1
84440;SHT31;74675;51.980;5.730;2023-12-20T05:18:17;8.7;78.0
84440;SHT31;74675;51.980;5.730;2023-12-20T05:20:46;8.7;77.7
84440;SHT31;74675;51.980;5.730;2023-12-20T05:23:15;8.8;77.8
84440;SHT31;74675;51.980;5.730;2023-12-20T05:25:44;8.8;77.3
84440;SHT31;74675;51.980;5.730;2023-12-20T05:28:12;8.8;77.2
84440;SHT31;74675;51.980;5.730;2023-12-20T05:30:41;8.8;77.5
84440;SHT31;74675;51.980;5.730;2023-12-20T05:33:09;8.9;77.5
84440;SHT31;74675;51.980;5.730;2023-12-20T05:35:38;8.9;77.4
84440;SHT31;74675;51.980;5.730;2023-12-20T05:38:06;8.9;77.3
84440;SHT31;74675;51.980;5.730;2023-12-20T05:40:35;8.9;76.9
84440;SHT31;74675;51.980;5.730;2023-12-20T05:43:03;9.0;76.4
84440;SHT31;74675;51.980;5.730;2023-12-20T05:45:32;9.0;76.5
84440;SHT31;74675;51.980;5.730;2023-12-20T05:48:01;9.0;76.9
84440;SHT31;74675;51.980;5.730;2023-12-20T05:50:29;9.0;76.5
84440;SHT31;74675;51.980;5.730;2023-12-20T05:52:59;9.0;76.5
84440;SHT31;74675;51.980;5.730;2023-12-20T05:55:30;9.0;77.1
84440;SHT31;74675;51.980;5.730;2023-12-20T05:57:58;9.0;76.4
84440;SHT31;74675;51.980;5.730;2023-12-20T06:00:29;9.0;75.9
84440;SHT31;74675;51.980;5.730;2023-12-20T06:02:57;9.0;76.4
84440;SHT31;74675;51.980;5.730;2023-12-20T06:05:26;9.0;76.4
84440;SHT31;74675;51.980;5.730;2023-12-20T06:07:54;9.0;76.4
84440;SHT31;74675;51.980;5.730;2023-12-20T06:10:27;9.0;76.2
84440;SHT31;74675;51.980;5.730;2023-12-20T06:12:56;9.0;76.6
84440;SHT31;74675;51.980;5.730;2023-12-20T06:15:25;9.0;76.3
84440;SHT31;74675;51.980;5.730;2023-12-20T06:17:53;9.0;76.4
84440;SHT31;74675;51.980;5.730;2023-12-20T06:20:22;9.1;76.6
84440;SHT31;74675;51.980;5.730;2023-12-20T06:22:51;9.1;76.1
84440;SHT31;74675;51.980;5.730;2023-12-20T06:25:19;9.1;76.3
84440;SHT31;74675;51.980;5.730;2023-12-20T06:27:48;9.1;75.8
84440;SHT31;74675;51.980;5.730;2023-12-20T06:30:17;9.1;76.0
84440;SHT31;74675;51.980;5.730;2023-12-20T06:32:46;9.1;76.2
84440;SHT31;74675;51.980;5.730;2023-12-20T06:35:15;9.1;75.9
84440;SHT31;74675;51.980;5.730;2023-12-20T06:37:43;9.1;75.7
84440;SHT31;74675;51.980;5.730;2023-12-20T06:40:12;9.1;75.8
84440;SHT31;74675;51.980;5.730;2023-12-20T06:42:40;9.1;75.5
84440;SHT31;74675;51.980;5.730;2023-12-20T06:45:10;9.1;75.8
84440;SHT31;74675;51.980;5.730;2023-12-20T06:47:39;9.1;75.7
84440;SHT31;74675;51.980;5.730;2023-12-20T06:50:08;9.1;75.6
84440;SHT31;74675;51.980;5.730;2023-12-20T06:52:36;9.1;75.3
84440;SHT31;74675;51.980;5.730;2023-12-20T06:55:05;9.1;75.4
84440;SHT31;74675;51.980;5.730;2023-12-20T06:57:34;9.1;75.3
84440;SHT31;74675;51.980;5.730;2023-12-20T07:00:03;9.1;75.4
84440;SHT31;74675;51.980;5.730;2023-12-20T07:02:32;9.1;75.4
84440;SHT31;74675;51.980;5.730;2023-12-20T07:05:01;9.1;75.6
84440;SHT31;74675;51.980;5.730;2023-12-20T07:07:30;9.1;75.7
84440;SHT31;74675;51.980;5.730;2023-12-20T07:09:58;9.1;75.7
84440;SHT31;74675;51.980;5.730;2023-12-20T07:12:27;9.1;75.8
84440;SHT31;74675;51.980;5.730;2023-12-20T07:14:55;9.1;75.7
84440;SHT31;74675;51.980;5.730;2023-12-20T07:17:24;9.1;75.9
84440;SHT31;74675;51.980;5.730;2023-12-20T07:19:54;9.1;75.3
84440;SHT31;74675;51.980;5.730;2023-12-20T07:22:22;9.1;75.6
84440;SHT31;74675;51.980;5.730;2023-12-20T07:24:53;9.1;76.0
84440;SHT31;74675;51.980;5.730;2023-12-20T07:27:23;9.1;75.7
84440;SHT31;74675;51.980;5.730;2023-12-20T07:29:52;9.1;75.7
84440;SHT31;74675;51.980;5.730;2023-12-20T07:32:20;9.2;76.0
84440;SHT31;74675;51.980;5.730;2023-12-20T07:34:49;9.2;75.5
84440;SHT31;74675;51.980;5.730;2023-12-20T07:37:18;9.2;75.9
84440;SHT31;74675;51.980;5.730;2023-12-20T07:39:47;9.2;75.6
84440;SHT31;74675;51.980;5.730;2023-12-20T07:42:18;9.2;75.4
84440;SHT31;74675;51.980;5.730;2023-12-20T07:44:48;9.3;75.2
84440;SHT31;74675;51.980;5.730;2023-12-20T07:47:17;9.3;75.4
84440;SHT31;74675;51.980;5.730;2023-12-20T07:49:48;9.3;75.7
84440;SHT31;74675;51.980;5.730;2023-12-20T07:52:18;9.3;75.7
84440;SHT31;74675;51.980;5.730;2023-12-20T07:54:48;9.3;75.5
84440;SHT31;74675;51.980;5.730;2023-12-20T07:57:19;9.3;75.4
84440;SHT31;74675;51.980;5.730;2023-12-20T07:59:47;9.3;75.6
84440;SHT31;74675;51.980;5.730;2023-12-20T08:02:16;9.3;75.8
84440;SHT31;74675;51.980;5.730;2023-12-20T08:04:45;9.3;75.2
84440;SHT31;74675;51.980;5.730;2023-12-20T08:07:14;9.4;75.3
84440;SHT31;74675;51.980;5.730;2023-12-20T08:09:43;9.4;75.1
84440;SHT31;74675;51.980;5.730;2023-12-20T08:12:11;9.4;75.5
84440;SHT31;74675;51.980;5.730;2023-12-20T08:14:40;9.4;75.3
84440;SHT31;74675;51.980;5.730;2023-12-20T08:17:09;9.4;75.4
84440;SHT31;74675;51.980;5.730;2023-12-20T08:19:39;9.4;75.1
84440;SHT31;74675;51.980;5.730;2023-12-20T08:22:07;9.4;75.0
84440;SHT31;74675;51.980;5.730;2023-12-20T08:24:36;9.4;75.0
84440;SHT31;74675;51.980;5.730;2023-12-20T08:27:05;9.4;75.2
84440;SHT31;74675;51.980;5.730;2023-12-20T08:29:36;9.4;74.9
84440;SHT31;74675;51.980;5.730;2023-12-20T08:32:05;9.4;75.0
84440;SHT31;74675;51.980;5.730;2023-12-20T08:34:33;9.5;74.7
84440;SHT31;74675;51.980;5.730;2023-12-20T08:37:02;9.5;75.1
84440;SHT31;74675;51.980;5.730;2023-12-20T08:39:31;9.5;74.9
84440;SHT31;74675;51.980;5.730;2023-12-20T08:42:00;9.5;75.3
84440;SHT31;74675;51.980;5.730;2023-12-20T08:44:28;9.5;74.9
84440;SHT31;74675;51.980;5.730;2023-12-20T08:46:57;9.5;75.1
84440;SHT31;74675;51.980;5.730;2023-12-20T08:49:26;9.6;74.6
84440;SHT31;74675;51.980;5.730;2023-12-20T08:51:55;9.6;74.6
84440;SHT31;74675;51.980;5.730;2023-12-20T08:54:24;9.6;74.6
84440;SHT31;74675;51.980;5.730;2023-12-20T08:56:53;9.6;74.8
84440;SHT31;74675;51.980;5.730;2023-12-20T08:59:21;9.6;74.6
84440;SHT31;74675;51.980;5.730;2023-12-20T09:01:50;9.6;74.7
84440;SHT31;74675;51.980;5.730;2023-12-20T09:04:21;9.6;74.8
84440;SHT31;74675;51.980;5.730;2023-12-20T09:06:49;9.6;74.9
84440;SHT31;74675;51.980;5.730;2023-12-20T09:09:18;9.6;75.0
84440;SHT31;74675;51.980;5.730;2023-12-20T09:11:47;9.6;75.4
84440;SHT31;74675;51.980;5.730;2023-12-20T09:14:17;9.6;75.7
84440;SHT31;74675;51.980;5.730;2023-12-20T09:16:46;9.6;76.3
84440;SHT31;74675;51.980;5.730;2023-12-20T09:19:17;9.5;76.6
84440;SHT31;74675;51.980;5.730;2023-12-20T09:21:46;9.5;77.1
84440;SHT31;74675;51.980;5.730;2023-12-20T09:24:15;9.5;77.0
84440;SHT31;74675;51.980;5.730;2023-12-20T09:26:44;9.5;77.7
84440;SHT31;74675;51.980;5.730;2023-12-20T09:29:12;9.4;77.5
84440;SHT31;74675;51.980;5.730;2023-12-20T09:31:43;9.4;78.1
84440;SHT31;74675;51.980;5.730;2023-12-20T09:34:14;9.4;78.2
84440;SHT31;74675;51.980;5.730;2023-12-20T09:36:43;9.4;78.8
84440;SHT31;74675;51.980;5.730;2023-12-20T09:39:13;9.3;78.6
84440;SHT31;74675;51.980;5.730;2023-12-20T09:41:44;9.3;78.7
84440;SHT31;74675;51.980;5.730;2023-12-20T09:44:15;9.3;79.2
84440;SHT31;74675;51.980;5.730;2023-12-20T09:46:51;9.3;79.2
84440;SHT31;74675;51.980;5.730;2023-12-20T09:49:21;9.3;79.3
84440;SHT31;74675;51.980;5.730;2023-12-20T09:51:51;9.3;78.6
84440;SHT31;74675;51.980;5.730;2023-12-20T09:54:21;9.3;79.2
84440;SHT31;74675;51.980;5.730;2023-12-20T09:56:50;9.3;79.6
84440;SHT31;74675;51.980;5.730;2023-12-20T09:59:19;9.3;79.2
84440;SHT31;74675;51.980;5.730;2023-12-20T10:01:49;9.3;78.6
84440;SHT31;74675;51.980;5.730;2023-12-20T10:04:18;9.3;78.6
84440;SHT31;74675;51.980;5.730;2023-12-20T10:06:47;9.4;78.4
84440;SHT31;74675;51.980;5.730;2023-12-20T10:09:16;9.4;78.1
84440;SHT31;74675;51.980;5.730;2023-12-20T10:11:45;9.4;78.5
84440;SHT31;74675;51.980;5.730;2023-12-20T10:14:13;9.4;78.7
84440;SHT31;74675;51.980;5.730;2023-12-20T10:16:42;9.5;78.8
84440;SHT31;74675;51.980;5.730;2023-12-20T10:19:15;9.5;78.5
84440;SHT31;74675;51.980;5.730;2023-12-20T10:21:44;9.6;78.4
84440;SHT31;74675;51.980;5.730;2023-12-20T10:24:17;9.6;78.2
84440;SHT31;74675;51.980;5.730;2023-12-20T10:26:45;9.7;77.6
84440;SHT31;74675;51.980;5.730;2023-12-20T10:29:14;9.7;77.5
84440;SHT31;74675;51.980;5.730;2023-12-20T10:31:43;9.8;77.5
84440;SHT31;74675;51.980;5.730;2023-12-20T10:34:11;9.8;77.6
84440;SHT31;74675;51.980;5.730;2023-12-20T10:36:42;9.8;77.4
84440;SHT31;74675;51.980;5.730;2023-12-20T10:39:11;9.9;77.4
84440;SHT31;74675;51.980;5.730;2023-12-20T10:41:43;9.9;77.0
84440;SHT31;74675;51.980;5.730;2023-12-20T10:44:15;9.9;76.9
84440;SHT31;74675;51.980;5.730;2023-12-20T10:46:45;9.9;77.3
84440;SHT31;74675;51.980;5.730;2023-12-20T10:49:20;10.0;76.8
84440;SHT31;74675;51.980;5.730;2023-12-20T10:51:50;10.0;76.3
84440;SHT31;74675;51.980;5.730;2023-12-20T10:54:20;10.1;76.5
84440;SHT31;74675;51.980;5.730;2023-12-20T10:56:52;10.1;76.5
84440;SHT31;74675;51.980;5.730;2023-12-20T10:59:23;10.1;76.8
84440;SHT31;74675;51.980;5.730;2023-12-20T11:01:54;10.1;76.5
84440;SHT31;74675;51.980;5.730;2023-12-20T11:04:31;10.1;76.6
84440;SHT31;74675;51.980;5.730;2023-12-20T11:07:13;10.2;76.0
84440;SHT31;74675;51.980;5.730;2023-12-20T11:09:49;10.2;75.9
84440;SHT31;74675;51.980;5.730;2023-12-20T11:12:28;10.2;75.8
84440;SHT31;74675;51.980;5.730;2023-12-20T11:14:59;10.3;75.6
84440;SHT31;74675;51.980;5.730;2023-12-20T11:17:31;10.3;75.4
84440;SHT31;74675;51.980;5.730;2023-12-20T11:20:08;10.4;74.7
84440;SHT31;74675;51.980;5.730;2023-12-20T11:22:53;10.4;74.8
84440;SHT31;74675;51.980;5.730;2023-12-20T11:25:22;10.4;73.9
84440;SHT31;74675;51.980;5.730;2023-12-20T11:28:09;10.5;74.4
84440;SHT31;74675;51.980;5.730;2023-12-20T11:30:46;10.5;74.3
84440;SHT31;74675;51.980;5.730;2023-12-20T11:33:15;10.5;73.9
84440;SHT31;74675;51.980;5.730;2023-12-20T11:35:45;10.6;74.0
84440;SHT31;74675;51.980;5.730;2023-12-20T11:38:15;10.6;73.8
84440;SHT31;74675;51.980;5.730;2023-12-20T11:40:44;10.7;72.6
84440;SHT31;74675;51.980;5.730;2023-12-20T11:43:31;10.7;72.9
84440;SHT31;74675;51.980;5.730;2023-12-20T11:46:05;10.7;73.0
84440;SHT31;74675;51.980;5.730;2023-12-20T11:48:36;10.7;72.2
84440;SHT31;74675;51.980;5.730;2023-12-20T11:51:11;10.7;72.2
84440;SHT31;74675;51.980;5.730;2023-12-20T11:53:41;10.8;71.7
84440;SHT31;74675;51.980;5.730;2023-12-20T11:56:12;10.8;72.1
84440;SHT31;74675;51.980;5.730;2023-12-20T11:58:42;10.8;71.3
84440;SHT31;74675;51.980;5.730;2023-12-20T12:01:10;10.9;71.0
84440;SHT31;74675;51.980;5.730;2023-12-20T12:03:39;10.9;70.7
84440;SHT31;74675;51.980;5.730;2023-12-20T12:06:09;10.9;70.6
84440;SHT31;74675;51.980;5.730;2023-12-20T12:08:38;10.9;70.3
84440;SHT31;74675;51.980;5.730;2023-12-20T12:11:06;10.9;70.8
84440;SHT31;74675;51.980;5.730;2023-12-20T12:13:35;11.0;70.7
84440;SHT31;74675;51.980;5.730;2023-12-20T12:16:05;11.0;69.9
84440;SHT31;74675;51.980;5.730;2023-12-20T12:18:34;11.1;70.2
84440;SHT31;74675;51.980;5.730;2023-12-20T12:21:03;11.1;70.0
84440;SHT31;74675;51.980;5.730;2023-12-20T12:23:32;11.1;70.7
84440;SHT31;74675;51.980;5.730;2023-12-20T12:26:03;11.1;70.0
84440;SHT31;74675;51.980;5.730;2023-12-20T12:28:36;11.1;70.6
84440;SHT31;74675;51.980;5.730;2023-12-20T12:31:05;11.2;70.9
84440;SHT31;74675;51.980;5.730;2023-12-20T12:33:34;11.2;70.7
84440;SHT31;74675;51.980;5.730;2023-12-20T12:36:04;11.2;70.6
84440;SHT31;74675;51.980;5.730;2023-12-20T12:38:33;11.2;70.7
84440;SHT31;74675;51.980;5.730;2023-12-20T12:41:02;11.2;71.4
84440;SHT31;74675;51.980;5.730;2023-12-20T12:43:32;11.2;70.9
84440;SHT31;74675;51.980;5.730;2023-12-20T12:46:00;11.2;71.1
84440;SHT31;74675;51.980;5.730;2023-12-20T12:48:29;11.2;71.3
84440;SHT31;74675;51.980;5.730;2023-12-20T12:50:58;11.2;71.1
84440;SHT31;74675;51.980;5.730;2023-12-20T12:53:27;11.2;71.4
84440;SHT31;74675;51.980;5.730;2023-12-20T12:55:56;11.2;71.0
84440;SHT31;74675;51.980;5.730;2023-12-20T12:58:24;11.2;71.2
84440;SHT31;74675;51.980;5.730;2023-12-20T13:00:53;11.2;71.9
84440;SHT31;74675;51.980;5.730;2023-12-20T13:03:23;11.2;71.7
84440;SHT31;74675;51.980;5.730;2023-12-20T13:05:51;11.3;71.3
84440;SHT31;74675;51.980;5.730;2023-12-20T13:08:20;11.3;71.9
84440;SHT31;74675;51.980;5.730;2023-12-20T13:10:49;11.3;71.4
84440;SHT31;74675;51.980;5.730;2023-12-20T13:13:17;11.3;71.4
84440;SHT31;74675;51.980;5.730;2023-12-20T13:15:46;11.3;70.7
84440;SHT31;74675;51.980;5.730;2023-12-20T13:18:19;11.3;71.0
84440;SHT31;74675;51.980;5.730;2023-12-20T13:20:48;11.3;70.8
84440;SHT31;74675;51.980;5.730;2023-12-20T13:23:17;11.4;70.9
84440;SHT31;74675;51.980;5.730;2023-12-20T13:25:46;11.4;70.7
84440;SHT31;74675;51.980;5.730;2023-12-20T13:28:15;11.4;70.5
84440;SHT31;74675;51.980;5.730;2023-12-20T13:30:43;11.3;71.1
84440;SHT31;74675;51.980;5.730;2023-12-20T13:33:12;11.3;71.1
84440;SHT31;74675;51.980;5.730;2023-12-20T13:35:41;11.3;70.8
84440;SHT31;74675;51.980;5.730;2023-12-20T13:38:12;11.3;70.6
84440;SHT31;74675;51.980;5.730;2023-12-20T13:40:41;11.3;70.9
84440;SHT31;74675;51.980;5.730;2023-12-20T13:43:10;11.3;71.0
84440;SHT31;74675;51.980;5.730;2023-12-20T13:45:39;11.3;70.8
84440;SHT31;74675;51.980;5.730;2023-12-20T13:48:08;11.3;70.6
84440;SHT31;74675;51.980;5.730;2023-12-20T13:50:37;11.3;71.1
84440;SHT31;74675;51.980;5.730;2023-12-20T13:53:05;11.2;70.7
84440;SHT31;74675;51.980;5.730;2023-12-20T13:55:34;11.2;70.5
84440;SHT31;74675;51.980;5.730;2023-12-20T13:58:03;11.2;71.1
84440;SHT31;74675;51.980;5.730;2023-12-20T14:00:34;11.2;71.4
84440;SHT31;74675;51.980;5.730;2023-12-20T14:03:03;11.2;70.6
84440;SHT31;74675;51.980;5.730;2023-12-20T14:05:32;11.2;70.5
84440;SHT31;74675;51.980;5.730;2023-12-20T14:08:00;11.2;70.7
84440;SHT31;74675;51.980;5.730;2023-12-20T14:10:29;11.2;70.6
84440;SHT31;74675;51.980;5.730;2023-12-20T14:12:58;11.2;70.4
84440;SHT31;74675;51.980;5.730;2023-12-20T14:15:27;11.2;70.4
84440;SHT31;74675;51.980;5.730;2023-12-20T14:17:55;11.2;70.1
84440;SHT31;74675;51.980;5.730;2023-12-20T14:20:24;11.2;69.8
84440;SHT31;74675;51.980;5.730;2023-12-20T14:22:53;11.2;70.0
84440;SHT31;74675;51.980;5.730;2023-12-20T14:25:23;11.2;70.0
84440;SHT31;74675;51.980;5.730;2023-12-20T14:27:52;11.2;70.2
84440;SHT31;74675;51.980;5.730;2023-12-20T14:30:21;11.2;70.3
84440;SHT31;74675;51.980;5.730;2023-12-20T14:32:51;11.2;70.2
84440;SHT31;74675;51.980;5.730;2023-12-20T14:35:20;11.2;69.9
84440;SHT31;74675;51.980;5.730;2023-12-20T14:37:48;11.2;70.4
84440;SHT31;74675;51.980;5.730;2023-12-20T14:40:17;11.2;70.5
84440;SHT31;74675;51.980;5.730;2023-12-20T14:42:46;11.2;70.4
84440;SHT31;74675;51.980;5.730;2023-12-20T14:45:16;11.2;71.1
84440;SHT31;74675;51.980;5.730;2023-12-20T14:47:45;11.2;70.9
84440;SHT31;74675;51.980;5.730;2023-12-20T14:50:17;11.2;70.8
84440;SHT31;74675;51.980;5.730;2023-12-20T14:52:46;11.2;71.1
84440;SHT31;74675;51.980;5.730;2023-12-20T14:55:15;11.2;71.0
84440;SHT31;74675;51.980;5.730;2023-12-20T14:57:46;11.2;71.1
84440;SHT31;74675;51.980;5.730;2023-12-20T15:00:16;11.2;70.9
84440;SHT31;74675;51.980;5.730;2023-12-20T15:02:45;11.2;70.7
84440;SHT31;74675;51.980;5.730;2023-12-20T15:05:14;11.2;71.0
84440;SHT31;74675;51.980;5.730;2023-12-20T15:07:44;11.2;71.0
84440;SHT31;74675;51.980;5.730;2023-12-20T15:10:13;11.2;71.2
84440;SHT31;74675;51.980;5.730;2023-12-20T15:12:43;11.2;71.2
84440;SHT31;74675;51.980;5.730;2023-12-20T15:15:12;11.1;71.4
84440;SHT31;74675;51.980;5.730;2023-12-20T15:17:41;11.1;71.2
84440;SHT31;74675;51.980;5.730;2023-12-20T15:20:10;11.1;71.5
84440;SHT31;74675;51.980;5.730;2023-12-20T15:22:40;11.1;71.7
84440;SHT31;74675;51.980;5.730;2023-12-20T15:25:14;11.1;72.0
84440;SHT31;74675;51.980;5.730;2023-12-20T15:27:48;11.1;72.2
84440;SHT31;74675;51.980;5.730;2023-12-20T15:30:19;11.1;72.3
84440;SHT31;74675;51.980;5.730;2023-12-20T15:32:48;11.1;72.3
84440;SHT31;74675;51.980;5.730;2023-12-20T15:35:17;11.0;72.7
84440;SHT31;74675;51.980;5.730;2023-12-20T15:37:45;11.0;73.1
84440;SHT31;74675;51.980;5.730;2023-12-20T15:40:14;11.0;73.1
84440;SHT31;74675;51.980;5.730;2023-12-20T15:42:43;11.0;73.4
84440;SHT31;74675;51.980;5.730;2023-12-20T15:45:12;11.0;73.8
84440;SHT31;74675;51.980;5.730;2023-12-20T15:47:40;10.9;74.0
84440;SHT31;74675;51.980;5.730;2023-12-20T15:50:11;10.9;74.3
84440;SHT31;74675;51.980;5.730;2023-12-20T15:52:40;10.8;74.7
84440;SHT31;74675;51.980;5.730;2023-12-20T15:55:12;10.7;75.2
84440;SHT31;74675;51.980;5.730;2023-12-20T15:57:40;10.6;76.0
84440;SHT31;74675;51.980;5.730;2023-12-20T16:00:09;10.5;76.6
84440;SHT31;74675;51.980;5.730;2023-12-20T16:02:38;10.5;77.0
84440;SHT31;74675;51.980;5.730;2023-12-20T16:05:07;10.4;77.6
84440;SHT31;74675;51.980;5.730;2023-12-20T16:07:36;10.4;78.0
84440;SHT31;74675;51.980;5.730;2023-12-20T16:10:05;10.3;78.1
84440;SHT31;74675;51.980;5.730;2023-12-20T16:12:33;10.3;78.9
84440;SHT31;74675;51.980;5.730;2023-12-20T16:15:02;10.3;79.1
84440;SHT31;74675;51.980;5.730;2023-12-20T16:17:31;10.2;79.0
84440;SHT31;74675;51.980;5.730;2023-12-20T16:20:00;10.2;79.3
84440;SHT31;74675;51.980;5.730;2023-12-20T16:22:29;10.2;79.4
84440;SHT31;74675;51.980;5.730;2023-12-20T16:24:58;10.1;79.6